createdAt,value
2019-02-15T00:00:46.828Z,90.00
2019-02-15T00:03:21.854Z,90.20
2019-02-15T00:05:56.895Z,90.40
2019-02-15T00:11:08.231Z,90.40
2019-02-15T00:13:43.275Z,90.80
2019-02-15T00:16:18.299Z,90.80
2019-02-15T00:18:55.403Z,90.70
2019-02-15T00:24:05.260Z,90.80
2019-02-15T00:26:41.094Z,90.80
2019-02-15T00:29:16.444Z,90.70
2019-02-15T00:31:51.779Z,90.50
2019-02-15T00:34:26.792Z,90.40
2019-02-15T00:39:36.395Z,90.50
2019-02-15T00:42:12.362Z,90.40
2019-02-15T00:44:47.469Z,90.40
2019-02-15T00:47:40.555Z,90.40
2019-02-15T00:50:38.818Z,90.50
2019-02-15T00:53:35.159Z,90.40
2019-02-15T00:56:21.963Z,90.70
2019-02-15T00:58:58.636Z,90.70
2019-02-15T01:01:42.069Z,90.70
2019-02-15T01:04:18.823Z,91.20
2019-02-15T01:06:58.325Z,91.40
2019-02-15T01:09:38.841Z,91.40
2019-02-15T01:14:50.142Z,91.80
2019-02-15T01:20:00.325Z,91.70
2019-02-15T01:30:56.677Z,92.20
2019-02-15T01:33:50.942Z,92.30
2019-02-15T01:39:30.321Z,92.20
2019-02-15T01:42:13.985Z,92.10
2019-02-15T01:44:50.673Z,92.30
2019-02-15T01:47:26.871Z,92.30
2019-02-15T01:50:01.935Z,92.40
2019-02-15T01:52:37.024Z,92.30
2019-02-15T01:55:12.075Z,92.60
2019-02-15T01:57:47.101Z,92.60
2019-02-15T02:00:23.762Z,92.80
2019-02-15T02:05:33.623Z,92.90
2019-02-15T02:08:11.602Z,92.70
2019-02-15T02:10:47.652Z,92.80
2019-02-15T02:13:22.734Z,93.00
2019-02-15T02:15:57.755Z,93.10
2019-02-15T02:18:32.816Z,93.10
2019-02-15T02:21:09.459Z,93.30
2019-02-15T02:23:44.924Z,93.20
2019-02-15T02:26:20.265Z,93.10
2019-02-15T02:28:56.615Z,93.20
2019-02-15T02:36:49.685Z,93.30
2019-02-15T02:39:25.055Z,93.70
2019-02-15T02:42:00.481Z,93.40
2019-02-15T02:44:35.499Z,93.40
2019-02-15T02:47:10.857Z,93.20
2019-02-15T02:49:45.878Z,93.10
2019-02-15T02:52:21.252Z,93.10
2019-02-15T02:54:56.267Z,93.30
2019-02-15T02:57:32.538Z,93.40
2019-02-15T03:02:43.385Z,93.80
2019-02-15T03:05:19.321Z,93.80
2019-02-15T03:07:54.409Z,93.80
2019-02-15T03:10:30.686Z,93.70
2019-02-15T03:13:05.701Z,93.60
2019-02-15T03:15:41.417Z,93.40
2019-02-15T03:18:16.719Z,93.20
2019-02-15T03:20:52.152Z,93.20
2019-02-15T03:23:27.503Z,93.30
2019-02-15T03:26:02.520Z,93.20
2019-02-15T03:28:37.679Z,93.30
2019-02-15T03:31:13.621Z,93.50
2019-02-15T03:33:48.652Z,93.80
2019-02-15T03:36:28.095Z,93.70
2019-02-15T03:41:45.137Z,94.20
2019-02-15T03:44:22.645Z,93.90
2019-02-15T03:46:57.546Z,93.90
2019-02-15T03:52:07.136Z,93.50
2019-02-15T03:54:42.183Z,93.40
2019-02-15T03:57:17.218Z,93.40
2019-02-15T03:59:52.418Z,93.50
2019-02-15T04:10:11.338Z,93.40
2019-02-15T04:15:23.215Z,93.20
2019-02-15T04:17:58.248Z,93.00
2019-02-15T04:20:33.267Z,92.80
2019-02-15T04:25:42.905Z,92.60
2019-02-15T04:28:20.334Z,93.30
2019-02-15T04:30:55.377Z,93.10
2019-02-15T04:36:06.302Z,92.70
2019-02-15T04:38:41.351Z,93.20
2019-02-15T04:41:17.451Z,93.60
2019-02-15T04:43:53.506Z,93.10
2019-02-15T04:46:28.899Z,93.30
2019-02-15T04:49:03.932Z,93.20
2019-02-15T04:56:49.397Z,93.70
2019-02-15T04:59:25.101Z,93.40
2019-02-15T05:04:34.618Z,94.30
2019-02-15T05:07:10.027Z,93.90
2019-02-15T05:12:20.182Z,94.30
2019-02-15T05:17:30.074Z,94.00
2019-02-15T05:20:06.958Z,94.00
2019-02-15T05:40:46.139Z,93.80
2019-02-15T05:51:04.999Z,94.20
2019-02-15T05:53:40.041Z,94.40
2019-02-15T05:56:15.147Z,94.00
2019-02-15T05:58:50.263Z,94.00
2019-02-15T06:01:26.760Z,94.30
2019-02-15T06:04:03.136Z,94.20
2019-02-15T06:06:39.151Z,94.20
2019-02-15T06:09:14.635Z,94.30
2019-02-15T06:11:49.657Z,94.50
2019-02-15T06:14:24.721Z,94.70
2019-02-15T06:24:45.703Z,95.00
2019-02-15T06:27:20.723Z,94.50
2019-02-15T06:29:57.420Z,94.50
2019-02-15T06:32:32.464Z,94.30
2019-02-15T06:35:07.994Z,94.30
2019-02-15T06:37:44.434Z,94.20
2019-02-15T06:40:19.462Z,94.10
2019-02-15T06:45:29.322Z,94.00
2019-02-15T06:48:04.659Z,94.20
2019-02-15T06:50:39.833Z,94.10
2019-02-15T06:53:14.955Z,94.10
2019-02-15T06:55:49.978Z,94.00
2019-02-15T06:58:25.002Z,94.00
2019-02-15T07:01:02.097Z,93.90
2019-02-15T07:03:40.184Z,93.90
2019-02-15T07:06:15.742Z,92.80
2019-02-15T07:08:51.411Z,89.60
2019-02-15T07:14:01.266Z,73.80
2019-02-15T07:16:36.401Z,67.50
2019-02-15T07:19:11.748Z,62.10
2019-02-15T07:21:48.831Z,58.90
2019-02-15T07:26:58.713Z,52.80
2019-02-15T07:29:34.044Z,51.60
2019-02-15T07:32:09.074Z,50.90
2019-02-15T07:34:44.431Z,48.80
2019-02-15T07:37:20.779Z,47.70
2019-02-15T07:39:55.839Z,47.80
2019-02-15T07:42:30.944Z,46.20
2019-02-15T07:45:10.813Z,44.70
2019-02-15T07:47:45.854Z,43.40
2019-02-15T07:50:21.282Z,43.00
2019-02-15T07:52:57.266Z,43.90
2019-02-15T07:55:32.686Z,45.70
2019-02-15T07:58:07.780Z,46.60
2019-02-15T08:00:43.170Z,46.10
2019-02-15T08:03:18.194Z,44.30
2019-02-15T08:05:53.731Z,42.60
2019-02-15T08:08:28.831Z,41.40
2019-02-15T08:11:04.509Z,40.00
2019-02-15T08:13:39.632Z,39.50
2019-02-15T08:16:18.071Z,39.50
2019-02-15T08:18:54.023Z,38.80
2019-02-15T08:21:29.070Z,38.20
2019-02-15T08:24:04.422Z,37.70
2019-02-15T08:26:39.774Z,37.20
2019-02-15T08:29:14.841Z,36.70
2019-02-15T08:31:50.357Z,36.10
2019-02-15T08:34:25.403Z,35.70
2019-02-15T08:37:03.133Z,36.50
2019-02-15T08:39:38.160Z,37.40
2019-02-15T08:42:13.198Z,37.50
2019-02-15T08:44:48.590Z,37.40
2019-02-15T08:47:23.639Z,36.60
2019-02-15T08:49:58.737Z,35.70
2019-02-15T08:52:35.042Z,35.40
2019-02-15T08:55:11.728Z,35.10
2019-02-15T08:57:47.136Z,35.20
2019-02-15T09:00:23.730Z,34.30
2019-02-15T09:02:59.765Z,33.50
2019-02-15T09:23:43.538Z,31.50
2019-02-15T09:26:18.956Z,31.50
2019-02-15T09:28:59.131Z,30.80
2019-02-15T09:39:18.473Z,30.40
2019-02-15T09:41:55.808Z,29.50
2019-02-15T09:44:30.875Z,29.20
2019-02-15T09:47:06.242Z,28.80
2019-02-15T09:49:42.698Z,28.50
2019-02-15T09:52:18.281Z,28.90
2019-02-15T09:54:55.650Z,28.70
2019-02-15T09:57:30.669Z,28.70
2019-02-15T10:00:08.804Z,28.70
2019-02-15T10:02:45.165Z,28.90
2019-02-15T10:05:20.330Z,28.70
2019-02-15T10:08:01.765Z,29.30
2019-02-15T10:10:40.055Z,32.00
2019-02-15T10:13:15.085Z,35.00
2019-02-15T10:18:28.035Z,41.50
2019-02-15T10:21:03.405Z,42.40
2019-02-15T10:26:14.044Z,38.50
2019-02-15T10:28:50.008Z,36.50
2019-02-15T10:31:25.211Z,33.50
2019-02-15T10:36:40.675Z,29.90
2019-02-15T10:39:18.487Z,29.10
2019-02-15T10:41:54.583Z,27.80
2019-02-15T10:44:32.770Z,27.70
2019-02-15T10:47:14.317Z,27.10
2019-02-15T10:49:48.130Z,27.20
2019-02-15T10:52:23.487Z,26.60
2019-02-15T10:54:58.733Z,26.90
2019-02-15T10:57:42.447Z,27.30
2019-02-15T11:00:22.506Z,28.40
2019-02-15T11:03:04.718Z,28.00
2019-02-15T11:05:49.391Z,27.70
2019-02-15T11:08:24.418Z,27.40
2019-02-15T11:11:00.383Z,27.90
2019-02-15T11:13:37.709Z,29.40
2019-02-15T11:16:12.750Z,29.60
2019-02-15T11:18:48.168Z,30.20
2019-02-15T11:21:27.787Z,31.30
2019-02-15T11:24:03.230Z,32.00
2019-02-15T11:26:39.590Z,32.80
2019-02-15T11:29:14.646Z,34.00
2019-02-15T11:31:49.777Z,32.60
2019-02-15T11:34:24.915Z,32.90
2019-02-15T11:37:01.284Z,32.80
2019-02-15T11:39:36.369Z,32.50
2019-02-15T11:42:12.448Z,33.00
2019-02-15T11:44:49.097Z,33.90
2019-02-15T11:47:24.627Z,32.50
2019-02-15T11:49:59.825Z,34.10
2019-02-15T11:52:34.953Z,34.50
2019-02-15T11:55:11.643Z,34.40
2019-02-15T11:57:47.066Z,35.50
2019-02-15T12:00:26.915Z,36.30
2019-02-15T12:03:02.102Z,36.80
2019-02-15T12:05:38.264Z,36.80
2019-02-15T12:08:16.389Z,36.60
2019-02-15T12:10:51.546Z,36.60
2019-02-15T12:13:27.707Z,37.30
2019-02-15T12:16:04.671Z,36.40
2019-02-15T12:18:43.183Z,35.60
2019-02-15T12:21:18.343Z,35.30
2019-02-15T12:23:58.368Z,35.10
2019-02-15T12:26:34.132Z,35.00
2019-02-15T12:31:47.431Z,35.50
2019-02-15T12:34:22.739Z,35.60
2019-02-15T12:36:58.260Z,34.20
2019-02-15T12:39:37.172Z,34.50
2019-02-15T12:42:14.883Z,34.60
2019-02-15T12:44:50.950Z,35.50
2019-02-15T12:47:26.022Z,34.30
2019-02-15T12:50:01.256Z,34.20
2019-02-15T12:52:38.312Z,33.10
2019-02-15T12:55:13.414Z,32.30
2019-02-15T12:57:48.780Z,31.60
2019-02-15T13:00:23.840Z,32.40
2019-02-15T13:03:02.312Z,32.80
2019-02-15T13:05:38.390Z,32.90
2019-02-15T13:08:13.591Z,33.40
2019-02-15T13:10:48.750Z,33.00
2019-02-15T13:13:23.816Z,32.90
2019-02-15T13:18:35.912Z,33.20
2019-02-15T13:21:12.995Z,33.10
2019-02-15T13:23:48.143Z,33.50
2019-02-15T13:26:23.269Z,34.00
2019-02-15T13:29:02.670Z,34.20
2019-02-15T13:31:37.750Z,34.30
2019-02-15T13:39:24.718Z,34.70
2019-02-15T13:42:00.824Z,35.00
2019-02-15T14:00:13.220Z,35.00
2019-02-15T14:02:48.464Z,35.50
2019-02-15T14:05:23.636Z,36.30
2019-02-15T14:07:59.220Z,36.70
2019-02-15T14:10:34.847Z,36.80
2019-02-15T14:13:09.990Z,36.30
2019-02-15T14:15:45.156Z,37.10
2019-02-15T14:18:21.695Z,37.00
2019-02-15T14:20:59.715Z,38.20
2019-02-15T14:23:36.879Z,36.60
2019-02-15T14:26:12.027Z,36.80
2019-02-15T14:28:47.260Z,36.80
2019-02-15T14:31:22.450Z,37.40
2019-02-15T14:33:57.859Z,36.10
2019-02-15T14:36:33.084Z,36.00
2019-02-15T14:39:11.983Z,35.50
2019-02-15T14:41:49.098Z,36.50
2019-02-15T14:44:24.277Z,36.80
2019-02-15T14:47:01.409Z,37.10
2019-02-15T14:49:36.714Z,37.20
2019-02-15T14:52:11.871Z,37.20
2019-02-15T14:54:47.948Z,37.50
2019-02-15T14:57:23.518Z,37.40
2019-02-15T14:59:58.680Z,37.60
2019-02-15T15:02:33.742Z,37.70
2019-02-15T15:05:10.387Z,37.10
2019-02-15T15:07:45.884Z,37.10
2019-02-15T15:10:23.294Z,36.50
2019-02-15T15:12:58.506Z,35.10
2019-02-15T15:15:33.604Z,33.20
2019-02-15T15:18:13.345Z,33.20
2019-02-15T15:20:46.445Z,32.90
2019-02-15T15:23:21.627Z,33.60
2019-02-15T15:25:56.788Z,33.70
2019-02-15T15:28:32.002Z,33.10
2019-02-15T15:31:08.119Z,31.50
2019-02-15T15:33:43.297Z,32.20
2019-02-15T15:36:18.591Z,33.20
2019-02-15T15:38:54.740Z,33.90
2019-02-15T15:41:29.828Z,34.40
2019-02-15T15:44:05.454Z,35.20
2019-02-15T15:46:41.520Z,33.20
2019-02-15T15:49:17.036Z,33.70
2019-02-15T15:51:52.147Z,34.00
2019-02-15T15:54:27.346Z,34.70
2019-02-15T15:57:02.586Z,35.30
2019-02-15T15:59:37.901Z,35.20
2019-02-15T16:02:13.123Z,36.80
2019-02-15T16:04:48.280Z,37.60
2019-02-15T16:07:25.103Z,39.70
2019-02-15T16:10:00.379Z,39.80
2019-02-15T16:12:37.400Z,40.40
2019-02-15T16:15:13.616Z,40.90
2019-02-15T16:17:50.055Z,41.30
2019-02-15T16:20:26.100Z,41.90
2019-02-15T16:23:01.583Z,44.20
2019-02-15T16:25:36.747Z,45.50
2019-02-15T16:28:11.909Z,45.60
2019-02-15T16:30:48.072Z,46.10
2019-02-15T16:33:23.701Z,46.90
2019-02-15T16:35:59.796Z,47.70
2019-02-15T16:38:35.711Z,48.00
2019-02-15T16:41:10.871Z,48.10
2019-02-15T16:43:46.124Z,48.30
2019-02-15T16:46:21.588Z,49.10
2019-02-15T16:48:57.630Z,49.80
2019-02-15T16:51:34.135Z,49.70
2019-02-15T16:54:09.286Z,50.30
2019-02-15T16:56:44.832Z,51.20
2019-02-15T16:59:20.919Z,51.70
2019-02-15T17:01:55.982Z,51.70
2019-02-15T17:04:31.475Z,51.80
2019-02-15T17:07:06.626Z,52.50
2019-02-15T17:09:42.960Z,52.60
2019-02-15T17:12:19.403Z,53.20
2019-02-15T17:14:54.843Z,53.70
2019-02-15T17:17:31.233Z,54.00
2019-02-15T17:20:08.658Z,54.80
2019-02-15T17:22:44.050Z,55.30
2019-02-15T17:25:19.442Z,56.20
2019-02-15T17:27:54.846Z,56.10
2019-02-15T17:30:31.208Z,56.10
2019-02-15T17:33:06.722Z,56.80
2019-02-15T17:35:41.814Z,57.10
2019-02-15T17:38:17.226Z,57.80
2019-02-15T17:40:53.739Z,57.90
2019-02-15T17:43:28.882Z,58.50
2019-02-15T17:46:04.311Z,59.30
2019-02-15T17:48:39.336Z,59.70
2019-02-15T17:51:14.415Z,60.20
2019-02-15T17:53:49.886Z,61.10
2019-02-15T17:56:25.000Z,60.70
2019-02-15T17:59:00.024Z,61.30
2019-02-15T18:01:35.722Z,61.60
2019-02-15T18:04:11.087Z,61.70
2019-02-15T18:06:46.115Z,62.00
2019-02-15T18:09:21.149Z,62.00
2019-02-15T18:11:56.270Z,62.20
2019-02-15T18:14:35.886Z,62.40
2019-02-15T18:17:10.919Z,62.90
2019-02-15T18:19:47.485Z,63.50
2019-02-15T18:22:22.660Z,64.20
2019-02-15T18:24:58.035Z,64.40
2019-02-15T18:27:33.147Z,64.30
2019-02-15T18:30:11.532Z,65.20
2019-02-15T18:32:49.978Z,65.70
2019-02-15T18:35:27.353Z,67.80
2019-02-15T18:38:02.404Z,67.20
2019-02-15T18:40:37.449Z,66.90
2019-02-15T18:43:13.726Z,67.00
2019-02-15T18:45:48.751Z,66.70
2019-02-15T18:48:26.738Z,67.20
2019-02-15T18:51:02.497Z,67.80
2019-02-15T18:53:37.859Z,67.40
2019-02-15T18:56:13.280Z,67.40
2019-02-15T18:58:48.318Z,67.50
2019-02-15T19:01:23.370Z,67.20
2019-02-15T19:03:58.402Z,67.70
2019-02-15T19:06:33.540Z,67.70
2019-02-15T19:09:09.991Z,68.00
2019-02-15T19:11:45.335Z,68.50
2019-02-15T19:14:20.589Z,69.70
2019-02-15T19:16:55.631Z,70.20
2019-02-15T19:19:30.713Z,70.20
2019-02-15T19:22:06.804Z,70.30
2019-02-15T19:24:42.140Z,70.00
2019-02-15T19:27:17.173Z,70.80
2019-02-15T19:29:52.489Z,70.70
2019-02-15T19:32:27.667Z,69.70
2019-02-15T19:35:03.031Z,69.40
2019-02-15T19:37:39.251Z,68.30
2019-02-15T19:40:18.249Z,67.60
2019-02-15T19:42:59.707Z,67.20
2019-02-15T19:45:35.134Z,67.00
2019-02-15T19:48:10.463Z,66.70
2019-02-15T19:50:45.596Z,66.30
2019-02-15T19:53:20.963Z,66.60
2019-02-15T19:55:56.201Z,66.20
2019-02-15T19:58:31.530Z,66.30
2019-02-15T20:01:06.993Z,66.10
2019-02-15T20:03:42.365Z,66.00
2019-02-15T20:06:18.215Z,67.80
2019-02-15T20:08:53.504Z,67.00
2019-02-15T20:11:30.092Z,67.20
2019-02-15T20:14:05.124Z,67.80
2019-02-15T20:16:40.593Z,67.70
2019-02-15T20:19:17.043Z,68.80
2019-02-15T20:21:52.491Z,68.40
2019-02-15T20:24:27.634Z,69.00
2019-02-15T20:27:02.695Z,68.30
2019-02-15T20:29:38.299Z,69.80
2019-02-15T20:32:16.196Z,70.00
2019-02-15T20:34:51.762Z,71.40
2019-02-15T20:37:27.101Z,71.00
2019-02-15T20:40:03.198Z,70.50
2019-02-15T20:42:38.295Z,69.70
2019-02-15T20:45:19.398Z,68.80
2019-02-15T20:47:54.595Z,69.30
2019-02-15T20:50:30.752Z,68.90
2019-02-15T20:53:06.281Z,68.40
2019-02-15T20:55:41.775Z,69.10
2019-02-15T20:58:17.209Z,68.20
2019-02-15T21:00:53.174Z,68.20
2019-02-15T21:03:28.512Z,69.00
2019-02-15T21:06:03.587Z,69.20
2019-02-15T21:11:13.998Z,69.60
2019-02-15T21:13:49.377Z,69.30
2019-02-15T21:16:24.505Z,69.20
2019-02-15T21:18:59.872Z,70.60
2019-02-15T21:21:36.186Z,70.80
2019-02-15T21:24:12.237Z,70.20
2019-02-15T21:26:47.304Z,69.60
2019-02-15T21:29:23.083Z,70.10
2019-02-15T21:31:58.225Z,70.30
2019-02-15T21:34:33.750Z,70.60
2019-02-15T21:37:11.877Z,70.60
2019-02-15T21:39:47.300Z,72.80
2019-02-15T21:42:26.793Z,72.70
2019-02-15T21:45:01.995Z,72.20
2019-02-15T21:47:37.525Z,72.70
2019-02-15T21:50:17.303Z,73.70
2019-02-15T21:52:49.645Z,73.90
2019-02-15T21:55:24.693Z,74.20
2019-02-15T21:58:01.757Z,74.00
2019-02-15T22:00:36.789Z,74.20
2019-02-15T22:03:12.127Z,74.30
2019-02-15T22:05:48.115Z,74.10
2019-02-15T22:08:24.460Z,74.40
2019-02-15T22:10:59.509Z,74.90
2019-02-15T22:13:35.013Z,74.70
2019-02-15T22:16:10.605Z,75.40
2019-02-15T22:18:46.022Z,75.80
2019-02-15T22:21:21.670Z,76.30
2019-02-15T22:23:57.859Z,76.20
2019-02-15T22:26:34.070Z,75.60
2019-02-15T22:29:09.598Z,77.10
2019-02-15T22:31:44.827Z,75.80
2019-02-15T22:34:19.869Z,76.40
2019-02-15T22:36:55.179Z,75.80
2019-02-15T22:39:30.214Z,77.10
2019-02-15T22:42:05.649Z,77.90
2019-02-15T22:44:41.011Z,77.60
2019-02-15T22:47:16.075Z,77.40
2019-02-15T22:50:23.851Z,77.60
2019-02-15T22:53:03.534Z,77.50
2019-02-15T22:55:38.633Z,77.90
2019-02-15T22:58:14.646Z,78.10
2019-02-15T23:01:03.430Z,79.60
2019-02-15T23:03:40.723Z,79.20
2019-02-15T23:06:15.753Z,79.70
2019-02-15T23:11:25.614Z,79.90
2019-02-15T23:14:03.267Z,80.00
2019-02-15T23:16:39.599Z,87.80
2019-02-15T23:19:14.618Z,84.90
2019-02-15T23:21:49.661Z,83.40
2019-02-15T23:24:24.982Z,83.00
2019-02-15T23:27:00.448Z,81.80
2019-02-15T23:29:35.553Z,81.80
2019-02-15T23:32:10.571Z,82.80
2019-02-15T23:34:45.613Z,82.00
2019-02-15T23:37:23.578Z,81.70
2019-02-15T23:39:58.632Z,81.00
2019-02-15T23:42:34.021Z,81.90
2019-02-15T23:45:09.125Z,81.50
2019-02-15T23:47:44.510Z,83.10
2019-02-15T23:50:19.881Z,82.30
2019-02-15T23:52:54.904Z,82.30
2019-02-15T23:55:30.343Z,82.10
